Time;durP1;ratioP1;P1;durP2;ratioP2;P2;SDS_P1;SDS_P2;PMS_P1;PMS_P2;Temp;Humidity;BMP_temperature;BMP_pressure;BME280_temperature;BME280_humidity;BME280_pressure;Samples;Min_cycle;Max_cycle;Signal;HPM_P1;HPM_P2
2021/08/19 00:00:07;;;;;;;1.70;1.60;;;;;;;12.48;100.00;93195.44;2106345;28;20031;-87
2021/08/19 00:01:08;;;;;;;2.38;1.65;;;;;;;12.52;100.00;93196.09;2106043;28;20032;-84
2021/08/19 00:02:09;;;;;;;3.75;1.35;;;;;;;12.50;100.00;93188.47;2097322;28;20032;-87
2021/08/19 00:03:10;;;;;;;1.63;1.52;;;;;;;12.52;100.00;93194.16;2089491;28;20033;-85
2021/08/19 00:04:11;;;;;;;1.80;1.70;;;;;;;12.55;100.00;93190.63;2089739;28;20485;-85
2021/08/19 00:05:12;;;;;;;2.10;1.90;;;;;;;12.57;100.00;93187.53;2089775;28;20028;-86
2021/08/19 00:06:14;;;;;;;3.88;1.48;;;;;;;12.55;100.00;93195.97;2089315;28;20393;-86
2021/08/19 00:07:15;;;;;;;2.05;1.65;;;;;;;12.52;100.00;93199.53;2093907;28;20029;-85
2021/08/19 00:08:16;;;;;;;4.82;1.70;;;;;;;12.56;100.00;93197.50;2099429;28;20036;-84
2021/08/19 00:09:17;;;;;;;3.58;2.10;;;;;;;12.55;100.00;93190.63;2101732;28;20028;-85
2021/08/19 00:10:18;;;;;;;1.77;1.67;;;;;;;12.55;100.00;93190.63;2098167;28;20079;-87
2021/08/19 00:11:18;;;;;;;4.57;1.40;;;;;;;12.56;100.00;93189.47;2097601;28;20047;-84
2021/08/19 00:12:19;;;;;;;3.03;1.63;;;;;;;12.60;100.00;93200.09;2089426;28;20142;-87
2021/08/19 00:13:20;;;;;;;1.90;1.70;;;;;;;12.63;100.00;93199.22;2087387;28;20033;-87
2021/08/19 00:14:21;;;;;;;2.50;1.60;;;;;;;12.65;100.00;93199.56;2087072;28;20025;-87
2021/08/19 00:15:22;;;;;;;2.08;1.70;;;;;;;12.61;100.00;93196.22;2102033;28;20023;-85
2021/08/19 00:16:23;;;;;;;3.55;1.92;;;;;;;12.62;100.00;93197.72;2100409;28;20111;-86
2021/08/19 00:17:24;;;;;;;4.57;1.98;;;;;;;12.63;100.00;93199.22;2089705;28;20032;-87
2021/08/19 00:18:25;;;;;;;2.10;1.60;;;;;;;12.64;100.00;93200.72;2097800;28;20024;-86
2021/08/19 00:19:26;;;;;;;2.55;1.60;;;;;;;12.63;100.00;93195.78;2105610;28;20393;-85
2021/08/19 00:20:27;;;;;;;2.60;1.52;;;;;;;12.64;100.00;93192.66;2097714;28;20052;-86
2021/08/19 00:21:29;;;;;;;4.97;1.50;;;;;;;12.65;100.00;93202.25;2106094;28;20028;-84
2021/08/19 00:22:31;;;;;;;1.80;1.70;;;;;;;12.58;100.00;93192.44;2106076;28;20016;-83
2021/08/19 00:23:35;;;;;;;3.10;1.90;;;;;;;12.64;100.00;93198.03;2089868;28;20359;-87
2021/08/19 00:24:35;;;;;;;2.60;1.75;;;;;;;12.66;100.00;93194.94;2097824;28;20028;-85
2021/08/19 00:25:36;;;;;;;3.30;1.60;;;;;;;12.64;100.00;93189.25;2089171;28;20502;-88
2021/08/19 00:26:37;;;;;;;1.52;1.42;;;;;;;12.65;100.00;93191.50;2089313;28;20017;-84
2021/08/19 00:27:39;;;;;;;2.42;1.60;;;;;;;12.68;100.00;93187.97;2094324;28;20024;-84
2021/08/19 00:28:40;;;;;;;1.55;1.45;;;;;;;12.71;100.00;93192.47;2101022;28;20051;-85
2021/08/19 00:29:40;;;;;;;1.42;1.33;;;;;;;12.72;100.00;93198.59;2089440;28;20033;-85
2021/08/19 00:30:41;;;;;;;1.45;1.30;;;;;;;12.76;100.00;93202.66;2094102;28;20016;-87
2021/08/19 00:31:42;;;;;;;3.45;1.40;;;;;;;12.74;100.00;93205.03;2094653;28;20473;-86
2021/08/19 00:32:43;;;;;;;1.50;1.40;;;;;;;12.73;100.00;93202.75;2089283;28;20404;-88
2021/08/19 00:33:45;;;;;;;2.97;0.93;;;;;;;12.78;100.00;93196.91;2103293;28;20476;-86
2021/08/19 00:34:46;;;;;;;1.58;1.40;;;;;;;12.76;100.00;93196.56;2105999;28;20062;-86
2021/08/19 00:35:47;;;;;;;0.90;0.90;;;;;;;12.79;100.00;93204.50;2089314;28;20028;-84
2021/08/19 00:36:50;;;;;;;1.30;1.20;;;;;;;12.80;100.00;93205.25;2088843;28;20531;-84
2021/08/19 00:37:51;;;;;;;3.08;1.48;;;;;;;12.79;100.00;93198.41;2089409;28;20079;-85
2021/08/19 00:38:52;;;;;;;1.40;1.25;;;;;;;12.76;100.00;93194.63;2093592;28;20021;-86
2021/08/19 00:39:53;;;;;;;1.40;1.30;;;;;;;12.76;100.00;93200.00;2089478;28;20017;-86
2021/08/19 00:40:54;;;;;;;1.48;1.30;;;;;;;12.75;100.00;93197.75;2089292;28;20040;-87
2021/08/19 00:41:55;;;;;;;1.40;1.27;;;;;;;12.78;100.00;93196.91;2097230;28;20386;-87
2021/08/19 00:42:58;;;;;;;1.30;1.20;;;;;;;12.76;100.00;93201.94;2097168;28;20035;-86
2021/08/19 00:44:00;;;;;;;1.40;1.30;;;;;;;12.71;100.00;93197.84;2089988;28;20512;-87
2021/08/19 00:45:01;;;;;;;2.10;1.40;;;;;;;12.74;100.00;93199.69;2089492;28;20025;-87
2021/08/19 00:46:22;;;;;;;1.10;1.00;;;;;;;12.76;100.00;93189.25;2089225;28;20020;-87
2021/08/19 00:47:26;;;;;;;2.15;1.52;;;;;;;12.76;100.00;93196.56;2101671;28;20035;-86
2021/08/19 00:48:27;;;;;;;1.23;1.00;;;;;;;12.77;100.00;93190.75;2097477;28;20020;-88
2021/08/19 00:49:29;;;;;;;1.70;1.10;;;;;;;12.74;100.00;93191.63;2105762;28;20112;-88
2021/08/19 00:50:30;;;;;;;2.38;1.30;;;;;;;12.75;100.00;93187.75;2105752;28;20418;-84
2021/08/19 00:51:35;;;;;;;1.67;1.33;;;;;;;12.72;100.00;93187.88;2105798;28;20092;-88
2021/08/19 00:52:37;;;;;;;1.95;1.33;;;;;;;12.68;100.00;93187.97;2110902;27;20166;-85
2021/08/19 00:53:38;;;;;;;1.15;1.10;;;;;;;12.60;100.00;93184.75;2114018;28;20112;-87
2021/08/19 00:54:40;;;;;;;1.30;1.20;;;;;;;12.58;100.00;93187.09;2105691;28;20028;-85
2021/08/19 00:55:41;;;;;;;2.25;1.52;;;;;;;12.59;100.00;93182.47;2105897;28;20090;-85
2021/08/19 00:56:42;;;;;;;1.40;1.30;;;;;;;12.55;100.00;93185.25;2105696;28;20024;-84
2021/08/19 00:57:47;;;;;;;1.20;1.10;;;;;;;12.58;100.00;93183.66;2097502;28;20382;-85
2021/08/19 00:58:48;;;;;;;1.75;1.10;;;;;;;12.55;100.00;93181.81;2090347;28;20043;-85
2021/08/19 00:59:52;;;;;;;1.00;1.00;;;;;;;12.55;100.00;93179.13;2105224;28;20110;-86
2021/08/19 01:00:53;;;;;;;2.15;1.00;;;;;;;12.53;100.00;93184.94;2114217;28;20019;-86
2021/08/19 01:02:00;;;;;;;2.55;1.10;;;;;;;12.49;100.00;93172.81;2101395;28;20462;-88
2021/08/19 01:03:02;;;;;;;3.25;1.42;;;;;;;12.44;100.00;93171.41;2096816;28;20040;-86
2021/08/19 01:04:07;;;;;;;1.13;1.10;;;;;;;12.40;100.00;93178.78;2097406;28;20025;-83
2021/08/19 01:05:10;;;;;;;1.55;1.45;;;;;;;12.42;100.00;93170.31;2101662;28;20264;-88
2021/08/19 01:06:11;;;;;;;2.50;1.20;;;;;;;12.35;100.00;93171.28;2093887;28;20558;-88
2021/08/19 01:07:13;;;;;;;1.33;1.23;;;;;;;12.31;100.00;93173.31;2094381;28;20028;-86
2021/08/19 01:08:14;;;;;;;1.98;1.10;;;;;;;12.25;100.00;93166.97;2096383;28;20028;-86
2021/08/19 01:09:17;;;;;;;1.27;1.17;;;;;;;12.29;100.00;93164.91;2103243;28;20059;-88
2021/08/19 01:10:18;;;;;;;1.50;1.40;;;;;;;12.27;100.00;93176.06;2105748;28;20031;-87
2021/08/19 01:11:20;;;;;;;3.03;1.63;;;;;;;12.30;100.00;93164.50;2096886;28;20047;-85
2021/08/19 01:12:21;;;;;;;3.33;1.42;;;;;;;12.30;100.00;93163.78;2097496;28;20063;-85
2021/08/19 01:13:22;;;;;;;1.40;1.30;;;;;;;12.32;100.00;93166.75;2097553;28;20028;-87
2021/08/19 01:14:23;;;;;;;1.48;1.38;;;;;;;12.35;100.00;93164.00;2105678;28;20485;-87
2021/08/19 01:15:24;;;;;;;1.17;1.08;;;;;;;12.29;100.00;93165.69;2105834;28;20111;-88
2021/08/19 01:16:25;;;;;;;1.98;1.25;;;;;;;12.40;100.00;93167.31;2097168;28;20024;-85
2021/08/19 01:17:28;;;;;;;1.30;1.20;;;;;;;12.37;100.00;93168.91;2096777;28;20087;-88
2021/08/19 01:18:43;;;;;;;1.50;1.38;;;;;;;12.40;100.00;93168.06;2097428;28;20448;-86
2021/08/19 01:19:51;;;;;;;1.45;1.20;;;;;;;12.43;100.00;93175.28;2094452;28;20150;-83
2021/08/19 01:20:55;;;;;;;2.97;1.40;;;;;;;12.40;100.00;93175.38;2104825;28;20024;-84
2021/08/19 01:21:56;;;;;;;1.05;1.02;;;;;;;12.37;100.00;93160.13;2097275;28;20032;-85
2021/08/19 01:22:58;;;;;;;1.88;1.40;;;;;;;12.34;100.00;93175.16;2088225;28;20033;-85
2021/08/19 01:23:59;;;;;;;1.33;1.13;;;;;;;12.33;100.00;93177.03;2097512;28;20058;-87
2021/08/19 01:25:00;;;;;;;1.50;1.25;;;;;;;12.32;100.00;93175.56;2089041;28;20028;-84
2021/08/19 01:26:11;;;;;;;1.50;1.40;;;;;;;12.34;100.00;93183.19;2097234;28;20067;-88
2021/08/19 01:27:14;;;;;;;3.22;1.30;;;;;;;12.33;100.00;93177.03;2098480;28;20255;-85
2021/08/19 01:28:15;;;;;;;3.33;1.33;;;;;;;12.37;100.00;93181.56;2105519;28;20420;-84
2021/08/19 01:29:16;;;;;;;1.27;1.17;;;;;;;12.38;100.00;93178.47;2113600;28;20074;-85
2021/08/19 01:30:17;;;;;;;1.20;1.10;;;;;;;12.36;100.00;93178.13;2097303;28;20021;-86
2021/08/19 01:31:20;;;;;;;1.75;1.40;;;;;;;12.33;100.00;93173.63;2097154;28;20024;-86
2021/08/19 01:32:22;;;;;;;1.15;1.05;;;;;;;12.31;100.00;93176.72;2097325;28;20079;-86
2021/08/19 01:33:24;;;;;;;1.90;1.40;;;;;;;12.32;100.00;93178.22;2097422;28;20473;-85
2021/08/19 01:34:26;;;;;;;2.70;1.20;;;;;;;12.35;100.00;93179.31;2096711;28;20056;-86
2021/08/19 01:35:28;;;;;;;1.55;1.08;;;;;;;12.34;100.00;93177.81;2089096;28;20082;-86
2021/08/19 01:36:29;;;;;;;1.75;1.50;;;;;;;12.35;100.00;93176.63;2097627;28;20028;-84
2021/08/19 01:37:30;;;;;;;1.67;1.40;;;;;;;12.35;100.00;93171.28;2105306;28;20047;-85
2021/08/19 01:38:34;;;;;;;1.30;1.20;;;;;;;12.38;100.00;93177.69;2088561;28;20485;-85
2021/08/19 01:39:35;;;;;;;4.13;1.27;;;;;;;12.40;100.00;93176.13;2101841;28;20484;-86
2021/08/19 01:40:36;;;;;;;1.48;1.30;;;;;;;12.38;100.00;93183.06;2096729;28;20452;-86
2021/08/19 01:41:37;;;;;;;2.45;1.40;;;;;;;12.42;100.00;93171.06;2088756;28;20053;-88
2021/08/19 01:42:38;;;;;;;1.73;1.42;;;;;;;12.41;100.00;93174.94;2088571;28;20021;-85
2021/08/19 01:43:40;;;;;;;1.38;1.17;;;;;;;12.39;100.00;93165.81;2097162;28;20020;-84
2021/08/19 01:44:41;;;;;;;1.73;1.40;;;;;;;12.40;100.00;93172.69;2101196;28;20039;-86
2021/08/19 01:45:41;;;;;;;2.40;1.40;;;;;;;12.40;100.00;93176.13;2096599;28;20395;-85
2021/08/19 01:46:42;;;;;;;2.10;1.45;;;;;;;12.44;100.00;93176.78;2094179;28;20544;-85
2021/08/19 01:47:45;;;;;;;2.70;1.40;;;;;;;12.46;100.00;93177.09;2096892;28;20031;-86
2021/08/19 01:48:47;;;;;;;1.52;1.30;;;;;;;12.50;100.00;93175.06;2113769;28;20027;-85
2021/08/19 01:49:48;;;;;;;1.33;1.23;;;;;;;12.45;100.00;93178.25;2096714;28;20032;-87
2021/08/19 01:50:49;;;;;;;1.50;1.40;;;;;;;12.42;100.00;93171.06;2097148;28;20385;-86
2021/08/19 01:51:52;;;;;;;1.58;1.40;;;;;;;12.43;100.00;93175.28;2104815;28;20016;-86
2021/08/19 01:52:53;;;;;;;1.67;1.05;;;;;;;12.48;100.00;93179.34;2105515;28;20028;-87
2021/08/19 01:53:54;;;;;;;1.30;1.17;;;;;;;12.46;100.00;93168.28;2096962;28;20661;-85
2021/08/19 01:54:55;;;;;;;1.38;1.20;;;;;;;12.49;100.00;93172.81;2088812;28;20119;-84
2021/08/19 01:55:57;;;;;;;1.27;1.17;;;;;;;12.48;100.00;93179.34;2088761;28;20414;-85
2021/08/19 01:56:58;;;;;;;1.40;1.30;;;;;;;12.45;100.00;93175.59;2097171;28;20031;-88
2021/08/19 01:57:59;;;;;;;1.48;1.20;;;;;;;12.51;100.00;93178.47;2096204;28;20078;-85
2021/08/19 01:59:00;;;;;;;1.25;1.15;;;;;;;12.48;100.00;93174.75;2096857;28;20020;-86
2021/08/19 02:00:01;;;;;;;1.48;1.38;;;;;;;12.48;100.00;93172.06;2096788;28;20028;-86
2021/08/19 02:01:02;;;;;;;1.98;1.48;;;;;;;12.49;100.00;93178.91;2096950;28;20078;-88
2021/08/19 02:02:03;;;;;;;0.98;0.98;;;;;;;12.48;100.00;93180.09;2097125;28;20042;-85
2021/08/19 02:03:05;;;;;;;3.05;1.00;;;;;;;12.47;100.00;93177.84;2093460;28;20459;-85
2021/08/19 02:04:06;;;;;;;1.60;1.40;;;;;;;12.44;100.00;93170.66;2088597;28;20025;-86
2021/08/19 02:05:07;;;;;;;1.30;1.20;;;;;;;12.49;100.00;93172.81;2096957;28;20024;-87
2021/08/19 02:06:08;;;;;;;1.40;1.10;;;;;;;12.51;100.00;93175.81;2096878;28;20035;-85
2021/08/19 02:07:09;;;;;;;1.60;1.50;;;;;;;12.51;100.00;93179.25;2088805;28;20111;-86
2021/08/19 02:08:10;;;;;;;2.72;1.52;;;;;;;12.52;100.00;93174.66;2088333;28;20021;-84
2021/08/19 02:09:11;;;;;;;1.20;1.10;;;;;;;12.56;100.00;93175.31;2096362;28;20032;-85
2021/08/19 02:10:12;;;;;;;1.30;1.20;;;;;;;12.53;100.00;93173.47;2096710;28;20063;-88
2021/08/19 02:11:13;;;;;;;1.30;1.20;;;;;;;12.54;100.00;93174.97;2097112;28;20074;-86
2021/08/19 02:12:14;;;;;;;1.40;1.30;;;;;;;12.50;100.00;93169.69;2088869;28;20029;-85
2021/08/19 02:13:15;;;;;;;1.27;1.17;;;;;;;12.51;100.00;93171.22;2096822;28;20021;-85
2021/08/19 02:14:16;;;;;;;1.30;1.20;;;;;;;12.46;100.00;93169.03;2096936;28;20047;-85
2021/08/19 02:15:17;;;;;;;2.03;1.35;;;;;;;12.43;100.00;93167.22;2087982;28;20028;-84
2021/08/19 02:16:18;;;;;;;1.33;1.23;;;;;;;12.43;100.00;93166.47;2088527;28;20056;-86
2021/08/19 02:17:19;;;;;;;2.05;1.20;;;;;;;12.38;100.00;93166.97;2088341;28;20029;-86
2021/08/19 02:18:20;;;;;;;2.55;1.30;;;;;;;12.40;100.00;93168.06;2096839;28;20032;-86
2021/08/19 02:19:21;;;;;;;5.13;1.40;;;;;;;12.41;100.00;93168.81;2096971;28;20025;-84
2021/08/19 02:20:22;;;;;;;1.27;1.17;;;;;;;12.39;100.00;93171.19;2096263;28;20036;-84
2021/08/19 02:21:23;;;;;;;1.35;1.25;;;;;;;12.35;100.00;93165.91;2088422;28;20036;-86
2021/08/19 02:22:23;;;;;;;1.50;1.40;;;;;;;12.32;100.00;93174.81;2088447;28;20059;-89
2021/08/19 02:23:24;;;;;;;1.30;1.20;;;;;;;12.28;100.00;93174.16;2096739;28;20462;-85
2021/08/19 02:24:25;;;;;;;1.70;1.30;;;;;;;12.36;100.00;93172.78;2096922;28;20028;-86
2021/08/19 02:25:27;;;;;;;1.80;1.40;;;;;;;12.31;100.00;93168.69;2096963;28;20409;-84
2021/08/19 02:26:28;;;;;;;1.30;1.20;;;;;;;12.33;100.00;93165.56;2088244;28;20017;-85
2021/08/19 02:27:29;;;;;;;2.78;1.00;;;;;;;12.24;100.00;93168.13;2096837;28;20090;-87
2021/08/19 02:28:30;;;;;;;1.75;1.25;;;;;;;12.21;100.00;93163.63;2096292;28;20131;-83
2021/08/19 02:29:31;;;;;;;1.50;1.40;;;;;;;12.26;100.00;93168.47;2088462;28;20448;-84
2021/08/19 02:30:32;;;;;;;1.40;1.10;;;;;;;12.29;100.00;93165.69;2096900;28;20074;-84
2021/08/19 02:31:33;;;;;;;1.10;1.10;;;;;;;12.29;100.00;93171.06;2096780;28;20068;-86
2021/08/19 02:32:34;;;;;;;2.55;1.30;;;;;;;12.35;100.00;93166.66;2092394;28;20028;-85
2021/08/19 02:33:35;;;;;;;1.40;1.30;;;;;;;12.24;100.00;93163.53;2096760;28;20048;-88
2021/08/19 02:34:36;;;;;;;3.17;1.30;;;;;;;12.21;100.00;93163.63;2096693;28;20493;-85
2021/08/19 02:35:37;;;;;;;1.52;1.42;;;;;;;12.22;100.00;93168.56;2096864;28;20031;-85
2021/08/19 02:36:38;;;;;;;1.10;1.10;;;;;;;12.12;100.00;93166.94;2096812;28;20562;-86
2021/08/19 02:37:38;;;;;;;1.25;1.15;;;;;;;12.09;100.00;93157.81;2088136;28;20044;-84
2021/08/19 02:38:39;;;;;;;1.58;1.27;;;;;;;12.08;100.00;93164.34;2096358;28;20066;-85
2021/08/19 02:39:40;;;;;;;2.15;1.20;;;;;;;12.06;100.00;93164.00;2101839;28;20492;-86
2021/08/19 02:40:41;;;;;;;4.35;1.50;;;;;;;12.09;100.00;93163.16;2096792;28;20020;-84
2021/08/19 02:41:42;;;;;;;1.85;1.35;;;;;;;12.06;100.00;93164.00;2096875;28;20021;-84
2021/08/19 02:42:43;;;;;;;2.58;1.30;;;;;;;11.97;100.00;93161.19;2088941;28;20056;-87
2021/08/19 02:43:44;;;;;;;1.15;1.05;;;;;;;12.05;100.00;93167.84;2087764;28;20456;-86
2021/08/19 02:44:45;;;;;;;1.73;1.30;;;;;;;12.04;100.00;93168.28;2096679;28;20563;-86
2021/08/19 02:45:46;;;;;;;0.95;0.93;;;;;;;12.06;100.00;93155.97;2096700;28;20070;-85
2021/08/19 02:46:47;;;;;;;1.40;1.30;;;;;;;12.08;100.00;93150.19;2096791;28;20567;-85
2021/08/19 02:47:48;;;;;;;2.53;1.10;;;;;;;12.16;100.00;93154.19;2088586;28;20036;-84
2021/08/19 02:48:49;;;;;;;2.55;1.10;;;;;;;12.13;100.00;93144.31;2080251;28;20378;-87
2021/08/19 02:49:50;;;;;;;1.30;1.20;;;;;;;12.09;100.00;93149.00;2096211;28;20016;-84
2021/08/19 02:50:51;;;;;;;1.30;1.20;;;;;;;12.05;100.00;93148.34;2096796;28;20028;-84
2021/08/19 02:51:52;;;;;;;1.30;1.20;;;;;;;12.05;100.00;93148.34;2097127;28;20051;-86
2021/08/19 02:52:53;;;;;;;1.15;1.13;;;;;;;12.07;100.00;93148.66;2096681;28;20020;-84
2021/08/19 02:53:54;;;;;;;1.30;1.20;;;;;;;12.03;100.00;93142.69;2088321;28;20044;-86
2021/08/19 02:54:55;;;;;;;1.42;1.08;;;;;;;12.04;100.00;93139.56;2088400;28;20024;-85
2021/08/19 02:55:56;;;;;;;1.65;1.27;;;;;;;12.09;100.00;93147.09;2088171;28;20053;-85
2021/08/19 02:56:57;;;;;;;1.30;1.20;;;;;;;12.12;100.00;93145.50;2096037;28;20028;-84
2021/08/19 02:57:58;;;;;;;1.70;1.10;;;;;;;12.15;100.00;93143.88;2093167;28;20025;-85
2021/08/19 02:58:59;;;;;;;4.45;1.38;;;;;;;12.11;100.00;93146.66;2091168;28;20017;-84
2021/08/19 03:00:00;;;;;;;1.45;1.17;;;;;;;12.12;100.00;93142.81;2092367;28;20067;-84
2021/08/19 03:01:00;;;;;;;3.45;1.35;;;;;;;12.12;100.00;93145.50;2092988;28;20025;-86
2021/08/19 03:02:02;;;;;;;1.95;1.17;;;;;;;12.13;100.00;93140.88;2085685;28;20036;-84
2021/08/19 03:03:03;;;;;;;1.85;1.38;;;;;;;12.16;100.00;93138.13;2089989;28;20504;-84
2021/08/19 03:04:04;;;;;;;1.27;1.17;;;;;;;12.15;100.00;93141.19;2089917;28;20020;-84
2021/08/19 03:05:06;;;;;;;1.70;1.33;;;;;;;12.19;100.00;93142.59;2094262;28;20095;-85
2021/08/19 03:06:07;;;;;;;2.08;1.50;;;;;;;12.14;100.00;93139.69;2093901;28;20125;-85
2021/08/19 03:07:09;;;;;;;5.00;1.42;;;;;;;12.14;100.00;93143.13;2081273;28;20032;-84
2021/08/19 03:08:10;;;;;;;1.35;1.15;;;;;;;12.15;100.00;93143.88;2095165;28;20058;-86
2021/08/19 03:09:11;;;;;;;2.05;1.30;;;;;;;12.15;100.00;93143.88;2106603;28;20074;-84
2021/08/19 03:10:12;;;;;;;1.50;1.40;;;;;;;12.12;100.00;93139.38;2098266;28;20024;-85
2021/08/19 03:11:13;;;;;;;2.22;1.50;;;;;;;12.12;100.00;93140.13;2098184;28;20494;-86
2021/08/19 03:12:14;;;;;;;1.30;1.20;;;;;;;12.12;100.00;93142.06;2098105;28;20077;-89
2021/08/19 03:13:15;;;;;;;1.40;1.30;;;;;;;12.13;100.00;93143.56;2106121;28;20027;-85
2021/08/19 03:14:16;;;;;;;1.70;1.33;;;;;;;12.16;100.00;93140.78;2098165;28;20501;-85
2021/08/19 03:15:17;;;;;;;1.38;1.27;;;;;;;12.15;100.00;93135.84;2090233;28;20091;-86
2021/08/19 03:16:18;;;;;;;2.15;1.30;;;;;;;12.13;100.00;93143.56;2098245;28;20402;-88
2021/08/19 03:17:19;;;;;;;1.25;1.17;;;;;;;12.12;100.00;93134.78;2098371;28;20024;-85
2021/08/19 03:18:20;;;;;;;1.35;1.25;;;;;;;12.02;100.00;93133.88;2106175;28;20139;-86
2021/08/19 03:19:21;;;;;;;1.63;1.30;;;;;;;12.05;100.00;93135.72;2114935;28;20479;-87
2021/08/19 03:20:22;;;;;;;1.20;1.10;;;;;;;12.03;100.00;93135.41;2106556;28;20031;-86
2021/08/19 03:21:23;;;;;;;1.50;1.10;;;;;;;12.04;100.00;93136.13;2098095;28;20484;-89
2021/08/19 03:22:24;;;;;;;1.98;1.30;;;;;;;12.05;100.00;93138.38;2089922;28;20390;-87
2021/08/19 03:23:25;;;;;;;1.33;1.23;;;;;;;12.02;100.00;93139.22;2089639;28;20043;-88
2021/08/19 03:24:28;;;;;;;3.10;1.30;;;;;;;11.95;100.00;93138.69;2097783;28;20036;-84
2021/08/19 03:25:29;;;;;;;3.45;1.30;;;;;;;11.98;100.00;93135.88;2115063;28;20023;-86
2021/08/19 03:26:31;;;;;;;1.20;1.15;;;;;;;11.95;100.00;93141.38;2114962;28;20027;-86
2021/08/19 03:27:32;;;;;;;2.15;1.35;;;;;;;11.94;100.00;93137.16;2106595;28;20553;-86
2021/08/19 03:28:33;;;;;;;1.30;1.20;;;;;;;11.91;100.00;93136.09;2089653;28;20056;-85
2021/08/19 03:29:35;;;;;;;1.38;1.27;;;;;;;11.87;100.00;93143.47;2097887;28;20409;-84
2021/08/19 03:30:36;;;;;;;1.10;1.00;;;;;;;11.87;100.00;93142.72;2089476;28;20123;-85
2021/08/19 03:31:37;;;;;;;4.28;1.33;;;;;;;11.80;100.00;93139.00;2090033;28;20385;-86
2021/08/19 03:32:40;;;;;;;1.27;1.20;;;;;;;11.74;100.00;93146.06;2094460;28;20135;-85
2021/08/19 03:33:42;;;;;;;2.03;1.02;;;;;;;11.65;100.00;93148.59;2098486;28;20029;-84
2021/08/19 03:34:43;;;;;;;3.03;1.30;;;;;;;11.65;100.00;93145.16;2098108;28;20420;-85
2021/08/19 03:35:45;;;;;;;1.65;1.20;;;;;;;11.63;100.00;93137.53;2089582;28;20060;-87
2021/08/19 03:36:47;;;;;;;1.40;1.30;;;;;;;11.65;100.00;93139.81;2090199;28;20063;-85
2021/08/19 03:37:48;;;;;;;2.58;1.60;;;;;;;11.65;100.00;93140.56;2097970;28;20533;-85
2021/08/19 03:38:49;;;;;;;1.30;1.20;;;;;;;11.64;100.00;93138.31;2106269;28;20384;-84
2021/08/19 03:39:50;;;;;;;1.33;1.10;;;;;;;11.61;100.00;93145.25;2098077;28;20078;-86
2021/08/19 03:40:50;;;;;;;1.58;1.15;;;;;;;11.63;100.00;93136.78;2098006;28;20473;-86
2021/08/19 03:41:51;;;;;;;2.70;1.20;;;;;;;11.57;100.00;93148.00;2089161;28;20021;-86
2021/08/19 03:42:52;;;;;;;1.35;1.13;;;;;;;11.53;100.00;93147.34;2096405;28;20036;-86
2021/08/19 03:43:53;;;;;;;3.17;1.50;;;;;;;11.54;100.00;93148.84;2106292;28;20492;-87
2021/08/19 03:44:54;;;;;;;3.08;1.40;;;;;;;11.54;100.00;93143.50;2106281;28;20690;-88
2021/08/19 03:45:55;;;;;;;1.35;1.25;;;;;;;11.55;100.00;93142.34;2089785;28;20088;-84
2021/08/19 03:46:56;;;;;;;1.80;1.50;;;;;;;11.54;100.00;93143.50;2089671;28;20031;-86
2021/08/19 03:47:57;;;;;;;2.10;1.38;;;;;;;11.63;100.00;93142.91;2093403;28;20539;-87
2021/08/19 03:48:59;;;;;;;2.30;1.30;;;;;;;11.59;100.00;93147.63;2089587;28;20108;-84
2021/08/19 03:50:00;;;;;;;1.58;1.48;;;;;;;11.61;100.00;93142.56;2089755;28;20021;-86
2021/08/19 03:51:01;;;;;;;2.95;1.63;;;;;;;11.65;100.00;93139.81;2089848;28;20543;-87
2021/08/19 03:52:02;;;;;;;1.50;1.40;;;;;;;11.60;100.00;93141.81;2098086;28;20017;-85
2021/08/19 03:53:03;;;;;;;2.40;1.33;;;;;;;11.56;100.00;93135.81;2105949;28;20028;-86
2021/08/19 03:54:04;;;;;;;1.60;1.50;;;;;;;11.59;100.00;93147.63;2093512;28;20020;-85
2021/08/19 03:55:06;;;;;;;4.63;1.48;;;;;;;11.58;100.00;93138.06;2094074;28;20074;-85
2021/08/19 03:56:07;;;;;;;2.33;1.20;;;;;;;11.57;100.00;93149.94;2106316;28;20023;-85
2021/08/19 03:57:08;;;;;;;1.30;1.20;;;;;;;11.61;100.00;93147.94;2097692;28;20024;-87
2021/08/19 03:58:09;;;;;;;1.80;1.48;;;;;;;11.67;100.00;93145.50;2089562;28;20024;-85
2021/08/19 03:59:10;;;;;;;1.10;1.10;;;;;;;11.63;100.00;93145.56;2096945;28;20055;-84
2021/08/19 04:00:11;;;;;;;1.38;1.30;;;;;;;11.65;100.00;93148.59;2105849;28;20032;-86
2021/08/19 04:01:12;;;;;;;2.67;1.50;;;;;;;11.60;100.00;93152.53;2097861;28;20728;-86
2021/08/19 04:02:13;;;;;;;4.07;1.58;;;;;;;11.63;100.00;93148.25;2097744;28;20035;-85
2021/08/19 04:03:14;;;;;;;4.32;1.50;;;;;;;11.63;100.00;93150.19;2106114;28;20164;-85
2021/08/19 04:04:16;;;;;;;2.10;1.48;;;;;;;11.54;100.00;93151.53;2097543;28;20028;-88
2021/08/19 04:05:17;;;;;;;1.42;1.33;;;;;;;11.51;100.00;93144.34;2089403;28;20077;-84
2021/08/19 04:06:18;;;;;;;1.50;1.40;;;;;;;11.51;100.00;93152.38;2089467;28;20128;-86
2021/08/19 04:07:19;;;;;;;1.67;1.50;;;;;;;11.51;100.00;93146.28;2089497;28;20033;-85
2021/08/19 04:08:20;;;;;;;1.33;1.23;;;;;;;11.55;100.00;93150.38;2105874;28;20020;-86
2021/08/19 04:09:21;;;;;;;1.85;1.10;;;;;;;11.57;100.00;93153.38;2093347;28;20579;-85
2021/08/19 04:10:22;;;;;;;4.05;1.45;;;;;;;11.56;100.00;93148.44;2097408;28;20055;-85
2021/08/19 04:11:23;;;;;;;2.80;1.42;;;;;;;11.56;100.00;93146.50;2100184;28;20031;-86
2021/08/19 04:12:24;;;;;;;1.60;1.50;;;;;;;11.59;100.00;93152.97;2093692;28;20386;-85
2021/08/19 04:13:25;;;;;;;1.70;1.60;;;;;;;11.57;100.00;93148.00;2088968;28;20021;-88
2021/08/19 04:14:26;;;;;;;2.38;1.20;;;;;;;11.58;100.00;93159.47;2097403;28;20048;-85
2021/08/19 04:15:27;;;;;;;1.80;1.70;;;;;;;11.57;100.00;93152.63;2113550;28;20027;-86
2021/08/19 04:16:28;;;;;;;2.28;1.52;;;;;;;11.51;100.00;93152.38;2097119;28;20114;-87
2021/08/19 04:17:29;;;;;;;1.70;1.55;;;;;;;11.49;100.00;93152.03;2085384;28;20063;-85
2021/08/19 04:18:30;;;;;;;3.92;1.50;;;;;;;11.52;100.00;93153.88;2084709;28;20409;-84
2021/08/19 04:19:31;;;;;;;2.67;1.48;;;;;;;11.48;100.00;93155.16;2097678;28;20012;-86
2021/08/19 04:20:32;;;;;;;3.40;1.40;;;;;;;11.59;100.00;93156.41;2101711;28;20035;-84
2021/08/19 04:21:33;;;;;;;1.98;1.40;;;;;;;11.56;100.00;93151.13;2089220;28;20504;-87
2021/08/19 04:22:34;;;;;;;1.60;1.50;;;;;;;11.61;100.00;93153.28;2089030;28;20449;-85
2021/08/19 04:23:35;;;;;;;1.70;1.60;;;;;;;11.57;100.00;93155.28;2102011;28;20027;-84
2021/08/19 04:24:36;;;;;;;3.22;1.50;;;;;;;11.61;100.00;93153.28;2097561;28;20046;-87
2021/08/19 04:25:37;;;;;;;2.75;1.30;;;;;;;11.62;100.00;93151.34;2093785;28;20016;-88
2021/08/19 04:26:38;;;;;;;4.05;1.90;;;;;;;11.59;100.00;93148.38;2097685;28;20036;-84
2021/08/19 04:27:39;;;;;;;4.97;1.40;;;;;;;11.63;100.00;93142.91;2105645;28;20047;-85
2021/08/19 04:28:40;;;;;;;1.45;1.20;;;;;;;11.57;100.00;93152.63;2097658;28;20020;-86
2021/08/19 04:29:41;;;;;;;3.33;1.70;;;;;;;11.55;100.00;93154.97;2089239;28;20032;-84
2021/08/19 04:30:42;;;;;;;1.83;1.48;;;;;;;11.55;100.00;93149.63;2089482;28;20040;-85
2021/08/19 04:31:43;;;;;;;1.40;1.30;;;;;;;11.56;100.00;93154.53;2089262;28;20525;-86
2021/08/19 04:32:44;;;;;;;2.95;1.38;;;;;;;11.62;100.00;93157.47;2097590;28;20053;-86
2021/08/19 04:33:45;;;;;;;1.95;1.52;;;;;;;11.62;100.00;93148.69;2096850;28;20134;-88
2021/08/19 04:34:46;;;;;;;1.90;1.48;;;;;;;11.63;100.00;93155.53;2105788;28;20516;-86
2021/08/19 04:35:47;;;;;;;4.53;1.50;;;;;;;11.66;100.00;93154.69;2105831;28;20024;-87
2021/08/19 04:36:48;;;;;;;1.20;1.20;;;;;;;11.65;100.00;93158.56;2089290;28;20174;-87
2021/08/19 04:37:49;;;;;;;1.20;1.10;;;;;;;11.64;100.00;93160.47;2097445;28;20120;-86
2021/08/19 04:38:50;;;;;;;1.80;1.40;;;;;;;11.65;100.00;93164.66;2105831;28;20043;-85
2021/08/19 04:39:51;;;;;;;1.50;1.35;;;;;;;11.66;100.00;93162.72;2096717;28;20020;-87
2021/08/19 04:40:52;;;;;;;4.28;1.45;;;;;;;11.65;100.00;93161.22;2089219;28;20017;-86
2021/08/19 04:41:53;;;;;;;1.48;1.38;;;;;;;11.63;100.00;93155.53;2097616;28;20051;-85
2021/08/19 04:42:54;;;;;;;4.38;1.42;;;;;;;11.66;100.00;93162.72;2097305;28;20028;-83
2021/08/19 04:43:55;;;;;;;1.60;1.50;;;;;;;11.62;100.00;93151.34;2097464;28;20447;-87
2021/08/19 04:44:56;;;;;;;1.80;1.33;;;;;;;11.63;100.00;93160.88;2105391;28;20061;-85